sensor_id;sensor_type;location;lat;lon;timestamp;temperature;humidity
23100;DHT22;53791;50.696;4.396;2023-07-29T00:00:50;19.30;99.90
23100;DHT22;53791;50.696;4.396;2023-07-29T00:03:17;19.20;99.90
23100;DHT22;53791;50.696;4.396;2023-07-29T00:05:45;19.20;99.90
23100;DHT22;53791;50.696;4.396;2023-07-29T00:08:12;19.10;99.90
23100;DHT22;53791;50.696;4.396;2023-07-29T00:10:40;19.00;99.90
23100;DHT22;53791;50.696;4.396;2023-07-29T00:13:11;19.00;99.90
23100;DHT22;53791;50.696;4.396;2023-07-29T00:15:38;18.90;99.90
23100;DHT22;53791;50.696;4.396;2023-07-29T00:18:06;18.80;99.90
23100;DHT22;53791;50.696;4.396;2023-07-29T00:20:33;18.80;99.90
23100;DHT22;53791;50.696;4.396;2023-07-29T00:23:01;18.70;99.90
23100;DHT22;53791;50.696;4.396;2023-07-29T00:25:29;18.60;99.90
23100;DHT22;53791;50.696;4.396;2023-07-29T00:27:57;18.50;99.90
23100;DHT22;53791;50.696;4.396;2023-07-29T00:30:24;18.40;99.90
23100;DHT22;53791;50.696;4.396;2023-07-29T00:32:52;18.50;99.90
23100;DHT22;53791;50.696;4.396;2023-07-29T00:35:19;18.50;99.90
23100;DHT22;53791;50.696;4.396;2023-07-29T00:37:47;18.40;99.90
23100;DHT22;53791;50.696;4.396;2023-07-29T00:40:21;18.30;99.90
23100;DHT22;53791;50.696;4.396;2023-07-29T00:42:49;18.40;99.90
23100;DHT22;53791;50.696;4.396;2023-07-29T00:45:17;18.40;99.90
23100;DHT22;53791;50.696;4.396;2023-07-29T00:47:45;18.40;99.90
23100;DHT22;53791;50.696;4.396;2023-07-29T00:50:14;18.30;99.90
23100;DHT22;53791;50.696;4.396;2023-07-29T00:52:42;18.30;99.90
23100;DHT22;53791;50.696;4.396;2023-07-29T00:55:09;18.30;99.90
23100;DHT22;53791;50.696;4.396;2023-07-29T00:57:38;18.30;99.90
23100;DHT22;53791;50.696;4.396;2023-07-29T01:00:07;18.30;99.90
23100;DHT22;53791;50.696;4.396;2023-07-29T01:02:35;18.30;99.90
23100;DHT22;53791;50.696;4.396;2023-07-29T01:05:03;18.20;99.90
23100;DHT22;53791;50.696;4.396;2023-07-29T01:07:52;18.30;99.90
23100;DHT22;53791;50.696;4.396;2023-07-29T01:10:46;18.30;99.90
23100;DHT22;53791;50.696;4.396;2023-07-29T01:16:08;18.20;99.90
23100;DHT22;53791;50.696;4.396;2023-07-29T01:18:36;18.40;99.90
23100;DHT22;53791;50.696;4.396;2023-07-29T01:21:11;18.40;99.90
23100;DHT22;53791;50.696;4.396;2023-07-29T01:23:35;18.40;99.90
23100;DHT22;53791;50.696;4.396;2023-07-29T01:26:03;18.30;99.90
23100;DHT22;53791;50.696;4.396;2023-07-29T01:28:31;18.30;99.90
23100;DHT22;53791;50.696;4.396;2023-07-29T01:31:10;18.30;99.90
23100;DHT22;53791;50.696;4.396;2023-07-29T01:33:35;18.40;99.90
23100;DHT22;53791;50.696;4.396;2023-07-29T01:36:17;18.40;99.90
23100;DHT22;53791;50.696;4.396;2023-07-29T01:38:41;18.40;99.90
23100;DHT22;53791;50.696;4.396;2023-07-29T01:41:10;18.40;99.90
23100;DHT22;53791;50.696;4.396;2023-07-29T01:43:38;18.40;99.90
23100;DHT22;53791;50.696;4.396;2023-07-29T01:46:09;18.40;99.90
23100;DHT22;53791;50.696;4.396;2023-07-29T01:48:37;18.30;99.90
23100;DHT22;53791;50.696;4.396;2023-07-29T01:51:06;18.30;99.90
23100;DHT22;53791;50.696;4.396;2023-07-29T01:53:33;18.30;99.90
23100;DHT22;53791;50.696;4.396;2023-07-29T01:56:02;18.30;99.90
23100;DHT22;53791;50.696;4.396;2023-07-29T01:58:30;18.20;99.90
23100;DHT22;53791;50.696;4.396;2023-07-29T02:00:57;18.10;99.90
23100;DHT22;53791;50.696;4.396;2023-07-29T02:03:25;18.10;99.90
23100;DHT22;53791;50.696;4.396;2023-07-29T02:05:53;18.10;99.90
23100;DHT22;53791;50.696;4.396;2023-07-29T02:08:21;18.20;99.90
23100;DHT22;53791;50.696;4.396;2023-07-29T02:10:48;18.10;99.90
23100;DHT22;53791;50.696;4.396;2023-07-29T02:13:16;18.10;99.90
23100;DHT22;53791;50.696;4.396;2023-07-29T02:15:44;18.10;99.90
23100;DHT22;53791;50.696;4.396;2023-07-29T02:18:11;18.10;99.90
23100;DHT22;53791;50.696;4.396;2023-07-29T02:20:38;18.00;99.90
23100;DHT22;53791;50.696;4.396;2023-07-29T02:23:07;18.00;99.90
23100;DHT22;53791;50.696;4.396;2023-07-29T02:25:36;18.00;99.90
23100;DHT22;53791;50.696;4.396;2023-07-29T02:28:03;18.00;99.90
23100;DHT22;53791;50.696;4.396;2023-07-29T02:30:31;18.00;99.90
23100;DHT22;53791;50.696;4.396;2023-07-29T02:32:58;18.00;99.90
23100;DHT22;53791;50.696;4.396;2023-07-29T02:35:27;18.10;99.90
23100;DHT22;53791;50.696;4.396;2023-07-29T02:37:55;18.10;99.90
23100;DHT22;53791;50.696;4.396;2023-07-29T02:40:23;18.10;99.90
23100;DHT22;53791;50.696;4.396;2023-07-29T02:42:52;18.10;99.90
23100;DHT22;53791;50.696;4.396;2023-07-29T02:45:19;18.10;99.90
23100;DHT22;53791;50.696;4.396;2023-07-29T02:47:47;18.10;99.90
23100;DHT22;53791;50.696;4.396;2023-07-29T02:50:14;18.10;99.90
23100;DHT22;53791;50.696;4.396;2023-07-29T02:52:42;18.10;99.90
23100;DHT22;53791;50.696;4.396;2023-07-29T02:55:18;18.10;99.90
23100;DHT22;53791;50.696;4.396;2023-07-29T02:57:46;18.00;99.90
23100;DHT22;53791;50.696;4.396;2023-07-29T03:00:14;18.10;99.90
23100;DHT22;53791;50.696;4.396;2023-07-29T03:02:42;18.10;99.90
23100;DHT22;53791;50.696;4.396;2023-07-29T03:05:09;18.10;99.90
23100;DHT22;53791;50.696;4.396;2023-07-29T03:07:37;18.10;99.90
23100;DHT22;53791;50.696;4.396;2023-07-29T03:10:05;18.10;99.90
23100;DHT22;53791;50.696;4.396;2023-07-29T03:12:33;18.10;99.90
23100;DHT22;53791;50.696;4.396;2023-07-29T03:15:00;18.10;99.90
23100;DHT22;53791;50.696;4.396;2023-07-29T03:17:28;18.10;99.90
23100;DHT22;53791;50.696;4.396;2023-07-29T03:19:56;18.10;99.90
23100;DHT22;53791;50.696;4.396;2023-07-29T03:22:23;18.10;99.90
23100;DHT22;53791;50.696;4.396;2023-07-29T03:24:51;18.00;99.90
23100;DHT22;53791;50.696;4.396;2023-07-29T03:27:18;18.00;99.90
23100;DHT22;53791;50.696;4.396;2023-07-29T03:29:46;17.90;99.90
23100;DHT22;53791;50.696;4.396;2023-07-29T03:32:14;17.90;99.90
23100;DHT22;53791;50.696;4.396;2023-07-29T03:34:41;17.90;99.90
23100;DHT22;53791;50.696;4.396;2023-07-29T03:37:09;17.90;99.90
23100;DHT22;53791;50.696;4.396;2023-07-29T03:39:36;17.90;99.90
23100;DHT22;53791;50.696;4.396;2023-07-29T03:42:04;17.90;99.90
23100;DHT22;53791;50.696;4.396;2023-07-29T03:44:32;17.90;99.90
23100;DHT22;53791;50.696;4.396;2023-07-29T03:47:00;17.90;99.90
23100;DHT22;53791;50.696;4.396;2023-07-29T03:49:27;17.90;99.90
23100;DHT22;53791;50.696;4.396;2023-07-29T03:51:55;17.90;99.90
23100;DHT22;53791;50.696;4.396;2023-07-29T03:54:22;17.90;99.90
23100;DHT22;53791;50.696;4.396;2023-07-29T03:56:50;17.90;99.90
23100;DHT22;53791;50.696;4.396;2023-07-29T03:59:17;17.80;99.90
23100;DHT22;53791;50.696;4.396;2023-07-29T04:01:45;17.80;99.90
23100;DHT22;53791;50.696;4.396;2023-07-29T04:04:12;17.80;99.90
23100;DHT22;53791;50.696;4.396;2023-07-29T04:06:40;17.80;99.90
23100;DHT22;53791;50.696;4.396;2023-07-29T04:09:07;17.80;99.90
23100;DHT22;53791;50.696;4.396;2023-07-29T04:11:35;17.80;99.90
23100;DHT22;53791;50.696;4.396;2023-07-29T04:14:03;17.70;99.90
23100;DHT22;53791;50.696;4.396;2023-07-29T04:16:30;17.80;99.90
23100;DHT22;53791;50.696;4.396;2023-07-29T04:18:58;17.70;99.90
23100;DHT22;53791;50.696;4.396;2023-07-29T04:21:26;17.70;99.90
23100;DHT22;53791;50.696;4.396;2023-07-29T04:23:53;17.70;99.90
23100;DHT22;53791;50.696;4.396;2023-07-29T04:26:21;17.70;99.90
23100;DHT22;53791;50.696;4.396;2023-07-29T04:28:48;17.70;99.90
23100;DHT22;53791;50.696;4.396;2023-07-29T04:31:16;17.70;99.90
23100;DHT22;53791;50.696;4.396;2023-07-29T04:33:44;17.70;99.90
23100;DHT22;53791;50.696;4.396;2023-07-29T04:36:11;17.70;99.90
23100;DHT22;53791;50.696;4.396;2023-07-29T04:38:39;17.70;99.90
23100;DHT22;53791;50.696;4.396;2023-07-29T04:41:06;17.70;99.90
23100;DHT22;53791;50.696;4.396;2023-07-29T04:43:35;17.70;99.90
23100;DHT22;53791;50.696;4.396;2023-07-29T04:46:05;17.70;99.90
23100;DHT22;53791;50.696;4.396;2023-07-29T04:48:32;17.70;99.90
23100;DHT22;53791;50.696;4.396;2023-07-29T04:50:59;17.70;99.90
23100;DHT22;53791;50.696;4.396;2023-07-29T04:53:27;17.70;99.90
23100;DHT22;53791;50.696;4.396;2023-07-29T04:55:54;17.60;99.90
23100;DHT22;53791;50.696;4.396;2023-07-29T04:58:22;17.70;99.90
23100;DHT22;53791;50.696;4.396;2023-07-29T05:00:49;17.70;99.90
23100;DHT22;53791;50.696;4.396;2023-07-29T05:03:17;17.80;99.90
23100;DHT22;53791;50.696;4.396;2023-07-29T05:05:44;17.80;99.90
23100;DHT22;53791;50.696;4.396;2023-07-29T05:08:12;17.70;99.90
23100;DHT22;53791;50.696;4.396;2023-07-29T05:10:39;17.70;99.90
23100;DHT22;53791;50.696;4.396;2023-07-29T05:13:07;17.70;99.90
23100;DHT22;53791;50.696;4.396;2023-07-29T05:15:35;17.80;99.90
23100;DHT22;53791;50.696;4.396;2023-07-29T05:18:02;17.80;99.90
23100;DHT22;53791;50.696;4.396;2023-07-29T05:20:30;17.80;99.90
23100;DHT22;53791;50.696;4.396;2023-07-29T05:22:57;17.90;99.90
23100;DHT22;53791;50.696;4.396;2023-07-29T05:25:25;17.90;99.90
23100;DHT22;53791;50.696;4.396;2023-07-29T05:27:52;17.90;99.90
23100;DHT22;53791;50.696;4.396;2023-07-29T05:30:20;17.90;99.90
23100;DHT22;53791;50.696;4.396;2023-07-29T05:32:48;18.00;99.90
23100;DHT22;53791;50.696;4.396;2023-07-29T05:35:15;18.10;99.90
23100;DHT22;53791;50.696;4.396;2023-07-29T05:37:42;18.10;99.90
23100;DHT22;53791;50.696;4.396;2023-07-29T05:40:10;18.20;99.90
23100;DHT22;53791;50.696;4.396;2023-07-29T05:42:38;18.40;99.90
23100;DHT22;53791;50.696;4.396;2023-07-29T05:45:06;18.50;99.90
23100;DHT22;53791;50.696;4.396;2023-07-29T05:47:33;18.40;99.90
23100;DHT22;53791;50.696;4.396;2023-07-29T05:50:01;18.50;99.90
23100;DHT22;53791;50.696;4.396;2023-07-29T05:52:31;18.60;99.90
23100;DHT22;53791;50.696;4.396;2023-07-29T05:54:59;18.70;99.90
23100;DHT22;53791;50.696;4.396;2023-07-29T05:57:27;18.70;99.90
23100;DHT22;53791;50.696;4.396;2023-07-29T05:59:55;18.80;99.90
23100;DHT22;53791;50.696;4.396;2023-07-29T06:02:22;18.90;99.90
23100;DHT22;53791;50.696;4.396;2023-07-29T06:04:50;18.90;99.90
23100;DHT22;53791;50.696;4.396;2023-07-29T06:07:18;19.00;99.90
23100;DHT22;53791;50.696;4.396;2023-07-29T06:09:45;19.20;99.90
23100;DHT22;53791;50.696;4.396;2023-07-29T06:12:13;19.30;99.90
23100;DHT22;53791;50.696;4.396;2023-07-29T06:14:40;19.40;99.90
23100;DHT22;53791;50.696;4.396;2023-07-29T06:17:08;19.50;99.90
23100;DHT22;53791;50.696;4.396;2023-07-29T06:19:37;19.50;99.90
23100;DHT22;53791;50.696;4.396;2023-07-29T06:22:05;19.70;99.90
23100;DHT22;53791;50.696;4.396;2023-07-29T06:24:32;19.80;99.90
23100;DHT22;53791;50.696;4.396;2023-07-29T06:27:00;19.80;99.90
23100;DHT22;53791;50.696;4.396;2023-07-29T06:29:27;19.90;99.90
23100;DHT22;53791;50.696;4.396;2023-07-29T06:31:55;19.90;99.90
23100;DHT22;53791;50.696;4.396;2023-07-29T06:34:22;19.90;99.90
23100;DHT22;53791;50.696;4.396;2023-07-29T06:36:50;19.90;99.90
23100;DHT22;53791;50.696;4.396;2023-07-29T06:39:17;19.90;99.90
23100;DHT22;53791;50.696;4.396;2023-07-29T06:41:45;19.90;99.90
23100;DHT22;53791;50.696;4.396;2023-07-29T06:44:12;19.90;99.90
23100;DHT22;53791;50.696;4.396;2023-07-29T06:46:40;19.90;99.90
23100;DHT22;53791;50.696;4.396;2023-07-29T06:49:07;19.70;99.90
23100;DHT22;53791;50.696;4.396;2023-07-29T06:51:35;19.70;99.90
23100;DHT22;53791;50.696;4.396;2023-07-29T06:54:03;19.70;99.90
23100;DHT22;53791;50.696;4.396;2023-07-29T06:56:30;19.80;99.90
23100;DHT22;53791;50.696;4.396;2023-07-29T06:58:58;19.80;99.90
23100;DHT22;53791;50.696;4.396;2023-07-29T07:01:25;19.80;99.90
23100;DHT22;53791;50.696;4.396;2023-07-29T07:03:53;19.90;99.90
23100;DHT22;53791;50.696;4.396;2023-07-29T07:06:22;19.90;99.90
23100;DHT22;53791;50.696;4.396;2023-07-29T07:08:51;20.10;99.90
23100;DHT22;53791;50.696;4.396;2023-07-29T07:11:19;20.00;99.90
23100;DHT22;53791;50.696;4.396;2023-07-29T07:13:46;20.10;99.90
23100;DHT22;53791;50.696;4.396;2023-07-29T07:16:14;20.20;99.90
23100;DHT22;53791;50.696;4.396;2023-07-29T07:18:41;20.20;99.90
23100;DHT22;53791;50.696;4.396;2023-07-29T07:21:09;20.20;99.90
23100;DHT22;53791;50.696;4.396;2023-07-29T07:23:38;20.30;99.90
23100;DHT22;53791;50.696;4.396;2023-07-29T07:26:05;20.40;99.90
23100;DHT22;53791;50.696;4.396;2023-07-29T07:28:33;20.70;99.90
23100;DHT22;53791;50.696;4.396;2023-07-29T07:31:01;20.60;99.90
23100;DHT22;53791;50.696;4.396;2023-07-29T07:33:28;20.60;99.90
23100;DHT22;53791;50.696;4.396;2023-07-29T07:35:56;20.60;99.90
23100;DHT22;53791;50.696;4.396;2023-07-29T07:38:23;20.60;99.90
23100;DHT22;53791;50.696;4.396;2023-07-29T07:40:55;20.60;99.90
23100;DHT22;53791;50.696;4.396;2023-07-29T07:43:23;20.60;99.90
23100;DHT22;53791;50.696;4.396;2023-07-29T07:45:51;20.60;99.90
23100;DHT22;53791;50.696;4.396;2023-07-29T07:48:20;20.60;99.90
23100;DHT22;53791;50.696;4.396;2023-07-29T07:50:48;20.60;99.90
23100;DHT22;53791;50.696;4.396;2023-07-29T07:53:15;20.70;99.90
23100;DHT22;53791;50.696;4.396;2023-07-29T07:55:43;21.00;99.90
23100;DHT22;53791;50.696;4.396;2023-07-29T07:58:10;21.00;99.90
23100;DHT22;53791;50.696;4.396;2023-07-29T08:00:38;21.10;99.90
23100;DHT22;53791;50.696;4.396;2023-07-29T08:03:05;21.10;99.90
23100;DHT22;53791;50.696;4.396;2023-07-29T08:05:33;20.90;99.90
23100;DHT22;53791;50.696;4.396;2023-07-29T08:08:00;21.00;99.90
23100;DHT22;53791;50.696;4.396;2023-07-29T08:10:28;21.10;99.90
23100;DHT22;53791;50.696;4.396;2023-07-29T08:12:55;21.20;99.90
23100;DHT22;53791;50.696;4.396;2023-07-29T08:15:23;21.30;99.90
23100;DHT22;53791;50.696;4.396;2023-07-29T08:17:50;21.50;99.90
23100;DHT22;53791;50.696;4.396;2023-07-29T08:20:18;21.80;99.90
23100;DHT22;53791;50.696;4.396;2023-07-29T08:22:45;22.10;99.90
23100;DHT22;53791;50.696;4.396;2023-07-29T08:25:13;22.30;99.90
23100;DHT22;53791;50.696;4.396;2023-07-29T08:27:40;22.20;99.90
23100;DHT22;53791;50.696;4.396;2023-07-29T08:30:08;22.30;99.90
23100;DHT22;53791;50.696;4.396;2023-07-29T08:32:36;22.30;99.90
23100;DHT22;53791;50.696;4.396;2023-07-29T08:35:04;22.40;99.90
23100;DHT22;53791;50.696;4.396;2023-07-29T08:37:32;22.30;99.90
23100;DHT22;53791;50.696;4.396;2023-07-29T08:40:00;22.30;99.90
23100;DHT22;53791;50.696;4.396;2023-07-29T08:42:29;22.20;99.90
23100;DHT22;53791;50.696;4.396;2023-07-29T08:45:01;22.30;99.90
23100;DHT22;53791;50.696;4.396;2023-07-29T08:47:28;22.30;99.90
23100;DHT22;53791;50.696;4.396;2023-07-29T08:49:56;22.30;99.90
23100;DHT22;53791;50.696;4.396;2023-07-29T08:52:26;22.30;99.90
23100;DHT22;53791;50.696;4.396;2023-07-29T08:54:54;22.20;99.90
23100;DHT22;53791;50.696;4.396;2023-07-29T08:57:22;22.10;99.90
23100;DHT22;53791;50.696;4.396;2023-07-29T08:59:50;22.10;99.90
23100;DHT22;53791;50.696;4.396;2023-07-29T09:02:18;22.40;99.90
23100;DHT22;53791;50.696;4.396;2023-07-29T09:04:45;22.60;99.90
23100;DHT22;53791;50.696;4.396;2023-07-29T09:07:13;22.80;99.90
23100;DHT22;53791;50.696;4.396;2023-07-29T09:09:41;23.00;99.90
23100;DHT22;53791;50.696;4.396;2023-07-29T09:12:09;23.30;99.90
23100;DHT22;53791;50.696;4.396;2023-07-29T09:14:37;23.40;99.90
23100;DHT22;53791;50.696;4.396;2023-07-29T09:17:07;23.30;99.90
23100;DHT22;53791;50.696;4.396;2023-07-29T09:19:35;23.30;99.90
23100;DHT22;53791;50.696;4.396;2023-07-29T09:22:03;23.20;99.90
23100;DHT22;53791;50.696;4.396;2023-07-29T09:24:30;23.20;99.90
23100;DHT22;53791;50.696;4.396;2023-07-29T09:26:58;23.00;99.90
23100;DHT22;53791;50.696;4.396;2023-07-29T09:29:28;23.10;99.90
23100;DHT22;53791;50.696;4.396;2023-07-29T09:32:17;23.20;99.90
23100;DHT22;53791;50.696;4.396;2023-07-29T09:34:26;23.30;99.90
23100;DHT22;53791;50.696;4.396;2023-07-29T09:36:54;23.30;99.90
23100;DHT22;53791;50.696;4.396;2023-07-29T09:39:23;23.30;99.90
23100;DHT22;53791;50.696;4.396;2023-07-29T09:41:51;23.30;99.90
23100;DHT22;53791;50.696;4.396;2023-07-29T09:44:19;23.10;99.90
23100;DHT22;53791;50.696;4.396;2023-07-29T09:46:46;23.10;99.90
23100;DHT22;53791;50.696;4.396;2023-07-29T09:49:14;23.00;99.90
23100;DHT22;53791;50.696;4.396;2023-07-29T09:51:42;23.00;99.90
23100;DHT22;53791;50.696;4.396;2023-07-29T09:54:11;23.00;99.90
23100;DHT22;53791;50.696;4.396;2023-07-29T09:56:41;22.90;99.90
23100;DHT22;53791;50.696;4.396;2023-07-29T09:59:12;23.00;99.90
23100;DHT22;53791;50.696;4.396;2023-07-29T10:01:44;22.70;99.90
23100;DHT22;53791;50.696;4.396;2023-07-29T10:04:12;22.50;99.90
23100;DHT22;53791;50.696;4.396;2023-07-29T10:06:44;22.20;99.90
23100;DHT22;53791;50.696;4.396;2023-07-29T10:09:14;21.80;99.90
23100;DHT22;53791;50.696;4.396;2023-07-29T10:11:42;21.50;99.90
23100;DHT22;53791;50.696;4.396;2023-07-29T10:14:10;21.20;99.90
23100;DHT22;53791;50.696;4.396;2023-07-29T10:16:39;20.80;99.90
23100;DHT22;53791;50.696;4.396;2023-07-29T10:19:13;20.60;99.90
23100;DHT22;53791;50.696;4.396;2023-07-29T10:21:39;20.50;99.90
23100;DHT22;53791;50.696;4.396;2023-07-29T10:24:14;20.40;99.90
23100;DHT22;53791;50.696;4.396;2023-07-29T10:26:42;20.20;99.90
23100;DHT22;53791;50.696;4.396;2023-07-29T10:29:24;20.00;99.90
23100;DHT22;53791;50.696;4.396;2023-07-29T10:31:53;20.00;99.90
23100;DHT22;53791;50.696;4.396;2023-07-29T10:34:25;20.00;99.90
23100;DHT22;53791;50.696;4.396;2023-07-29T10:36:53;20.10;99.90
23100;DHT22;53791;50.696;4.396;2023-07-29T10:39:21;20.20;99.90
23100;DHT22;53791;50.696;4.396;2023-07-29T10:42:01;20.20;99.90
23100;DHT22;53791;50.696;4.396;2023-07-29T10:47:18;20.50;99.90
23100;DHT22;53791;50.696;4.396;2023-07-29T10:49:49;20.50;99.90
23100;DHT22;53791;50.696;4.396;2023-07-29T10:52:27;20.50;99.90
23100;DHT22;53791;50.696;4.396;2023-07-29T10:54:53;20.40;99.90
23100;DHT22;53791;50.696;4.396;2023-07-29T11:00:04;20.50;99.90
23100;DHT22;53791;50.696;4.396;2023-07-29T11:02:34;20.50;99.90
23100;DHT22;53791;50.696;4.396;2023-07-29T11:05:18;20.30;99.90
23100;DHT22;53791;50.696;4.396;2023-07-29T11:07:52;20.50;99.90
23100;DHT22;53791;50.696;4.396;2023-07-29T11:10:17;20.60;99.90
23100;DHT22;53791;50.696;4.396;2023-07-29T11:12:48;20.40;99.90
23100;DHT22;53791;50.696;4.396;2023-07-29T11:15:28;20.20;99.90
23100;DHT22;53791;50.696;4.396;2023-07-29T11:17:58;20.20;99.90
23100;DHT22;53791;50.696;4.396;2023-07-29T11:20:28;20.30;99.90
23100;DHT22;53791;50.696;4.396;2023-07-29T11:23:21;20.40;99.90
23100;DHT22;53791;50.696;4.396;2023-07-29T11:25:33;20.40;99.90
23100;DHT22;53791;50.696;4.396;2023-07-29T11:28:02;20.40;99.90
23100;DHT22;53791;50.696;4.396;2023-07-29T11:30:31;20.40;99.90
23100;DHT22;53791;50.696;4.396;2023-07-29T11:35:29;20.60;99.90
23100;DHT22;53791;50.696;4.396;2023-07-29T11:37:57;20.70;99.90
23100;DHT22;53791;50.696;4.396;2023-07-29T11:40:24;21.00;99.90
23100;DHT22;53791;50.696;4.396;2023-07-29T11:42:54;21.30;99.90
23100;DHT22;53791;50.696;4.396;2023-07-29T11:45:23;21.40;99.90
23100;DHT22;53791;50.696;4.396;2023-07-29T11:47:50;21.50;99.90
23100;DHT22;53791;50.696;4.396;2023-07-29T11:50:18;21.60;99.90
23100;DHT22;53791;50.696;4.396;2023-07-29T11:52:48;21.60;99.90
23100;DHT22;53791;50.696;4.396;2023-07-29T11:55:27;21.50;99.90
23100;DHT22;53791;50.696;4.396;2023-07-29T11:57:51;21.40;99.90
23100;DHT22;53791;50.696;4.396;2023-07-29T12:00:21;21.50;99.90
23100;DHT22;53791;50.696;4.396;2023-07-29T12:02:51;21.50;99.90
23100;DHT22;53791;50.696;4.396;2023-07-29T12:05:21;21.50;99.90
23100;DHT22;53791;50.696;4.396;2023-07-29T12:07:54;21.60;99.90
23100;DHT22;53791;50.696;4.396;2023-07-29T12:10:18;21.70;99.90
23100;DHT22;53791;50.696;4.396;2023-07-29T12:12:49;21.70;99.90
23100;DHT22;53791;50.696;4.396;2023-07-29T12:15:26;21.70;99.90
23100;DHT22;53791;50.696;4.396;2023-07-29T12:18:00;21.60;99.90
23100;DHT22;53791;50.696;4.396;2023-07-29T12:20:40;21.50;99.90
23100;DHT22;53791;50.696;4.396;2023-07-29T12:23:10;21.20;99.90
23100;DHT22;53791;50.696;4.396;2023-07-29T12:25:39;21.00;99.90
23100;DHT22;53791;50.696;4.396;2023-07-29T12:28:07;20.90;99.90
23100;DHT22;53791;50.696;4.396;2023-07-29T12:30:40;20.70;99.90
23100;DHT22;53791;50.696;4.396;2023-07-29T12:33:03;20.70;99.90
23100;DHT22;53791;50.696;4.396;2023-07-29T12:35:39;20.50;99.90
23100;DHT22;53791;50.696;4.396;2023-07-29T12:38:09;20.30;99.90
23100;DHT22;53791;50.696;4.396;2023-07-29T12:40:41;20.10;99.90
23100;DHT22;53791;50.696;4.396;2023-07-29T12:43:08;20.00;99.90
23100;DHT22;53791;50.696;4.396;2023-07-29T12:45:39;20.00;99.90
23100;DHT22;53791;50.696;4.396;2023-07-29T12:48:08;20.10;99.90
23100;DHT22;53791;50.696;4.396;2023-07-29T12:50:41;20.10;99.90
23100;DHT22;53791;50.696;4.396;2023-07-29T12:53:15;20.10;99.90
23100;DHT22;53791;50.696;4.396;2023-07-29T12:55:55;20.30;99.90
23100;DHT22;53791;50.696;4.396;2023-07-29T12:58:22;20.60;99.90
23100;DHT22;53791;50.696;4.396;2023-07-29T13:00:48;21.00;99.90
23100;DHT22;53791;50.696;4.396;2023-07-29T13:03:16;21.40;99.90
23100;DHT22;53791;50.696;4.396;2023-07-29T13:05:44;21.60;99.90
23100;DHT22;53791;50.696;4.396;2023-07-29T13:08:13;21.70;99.90
23100;DHT22;53791;50.696;4.396;2023-07-29T13:10:41;22.10;99.90
23100;DHT22;53791;50.696;4.396;2023-07-29T13:13:08;22.20;99.90
23100;DHT22;53791;50.696;4.396;2023-07-29T13:15:36;22.30;99.90
23100;DHT22;53791;50.696;4.396;2023-07-29T13:18:04;22.30;99.90
23100;DHT22;53791;50.696;4.396;2023-07-29T13:20:33;22.30;99.90
23100;DHT22;53791;50.696;4.396;2023-07-29T13:23:02;22.30;99.90
23100;DHT22;53791;50.696;4.396;2023-07-29T13:25:30;22.20;99.90
23100;DHT22;53791;50.696;4.396;2023-07-29T13:28:02;22.10;99.90
23100;DHT22;53791;50.696;4.396;2023-07-29T13:30:30;22.20;99.90
23100;DHT22;53791;50.696;4.396;2023-07-29T13:32:58;22.10;99.90
23100;DHT22;53791;50.696;4.396;2023-07-29T13:35:29;22.00;99.90
23100;DHT22;53791;50.696;4.396;2023-07-29T13:38:00;21.90;99.90
23100;DHT22;53791;50.696;4.396;2023-07-29T13:40:33;22.00;99.90
23100;DHT22;53791;50.696;4.396;2023-07-29T13:43:10;22.00;99.90
23100;DHT22;53791;50.696;4.396;2023-07-29T13:45:39;22.00;99.90
23100;DHT22;53791;50.696;4.396;2023-07-29T13:48:07;22.00;99.90
23100;DHT22;53791;50.696;4.396;2023-07-29T13:50:35;22.00;99.90
23100;DHT22;53791;50.696;4.396;2023-07-29T13:53:02;22.10;99.90
23100;DHT22;53791;50.696;4.396;2023-07-29T13:55:30;22.10;99.90
23100;DHT22;53791;50.696;4.396;2023-07-29T13:57:57;22.30;99.90
23100;DHT22;53791;50.696;4.396;2023-07-29T14:00:28;22.50;99.90
23100;DHT22;53791;50.696;4.396;2023-07-29T14:02:58;22.60;99.90
23100;DHT22;53791;50.696;4.396;2023-07-29T14:05:26;22.60;99.90
23100;DHT22;53791;50.696;4.396;2023-07-29T14:07:54;22.50;99.90
23100;DHT22;53791;50.696;4.396;2023-07-29T14:10:21;22.50;99.90
23100;DHT22;53791;50.696;4.396;2023-07-29T14:12:52;22.60;99.90
23100;DHT22;53791;50.696;4.396;2023-07-29T14:15:18;22.70;99.90
23100;DHT22;53791;50.696;4.396;2023-07-29T14:17:46;22.70;99.90
23100;DHT22;53791;50.696;4.396;2023-07-29T14:20:13;22.70;99.90
23100;DHT22;53791;50.696;4.396;2023-07-29T14:22:41;22.80;99.90
23100;DHT22;53791;50.696;4.396;2023-07-29T14:25:08;22.90;99.90
23100;DHT22;53791;50.696;4.396;2023-07-29T14:27:36;23.00;99.90
23100;DHT22;53791;50.696;4.396;2023-07-29T14:30:04;22.90;99.90
23100;DHT22;53791;50.696;4.396;2023-07-29T14:32:32;22.80;99.90
23100;DHT22;53791;50.696;4.396;2023-07-29T14:35:00;22.80;99.90
23100;DHT22;53791;50.696;4.396;2023-07-29T14:37:31;22.90;99.90
23100;DHT22;53791;50.696;4.396;2023-07-29T14:39:59;22.80;99.90
23100;DHT22;53791;50.696;4.396;2023-07-29T14:42:27;22.80;99.90
23100;DHT22;53791;50.696;4.396;2023-07-29T14:44:55;22.90;99.90
23100;DHT22;53791;50.696;4.396;2023-07-29T14:47:22;22.70;99.90
23100;DHT22;53791;50.696;4.396;2023-07-29T14:49:53;22.70;99.90
23100;DHT22;53791;50.696;4.396;2023-07-29T14:52:20;22.80;99.90
23100;DHT22;53791;50.696;4.396;2023-07-29T14:54:50;22.60;99.90
23100;DHT22;53791;50.696;4.396;2023-07-29T14:57:17;22.60;99.90
23100;DHT22;53791;50.696;4.396;2023-07-29T14:59:49;22.70;99.90
23100;DHT22;53791;50.696;4.396;2023-07-29T15:02:17;22.80;99.90
23100;DHT22;53791;50.696;4.396;2023-07-29T15:04:44;22.90;99.90
23100;DHT22;53791;50.696;4.396;2023-07-29T15:07:12;22.90;99.90
23100;DHT22;53791;50.696;4.396;2023-07-29T15:09:47;22.80;99.90
23100;DHT22;53791;50.696;4.396;2023-07-29T15:12:14;22.80;99.90
23100;DHT22;53791;50.696;4.396;2023-07-29T15:14:45;22.90;99.90
23100;DHT22;53791;50.696;4.396;2023-07-29T15:19:48;22.50;99.90
23100;DHT22;53791;50.696;4.396;2023-07-29T15:22:18;22.30;99.90
23100;DHT22;53791;50.696;4.396;2023-07-29T15:24:45;22.30;99.90
23100;DHT22;53791;50.696;4.396;2023-07-29T15:27:13;22.40;99.90
23100;DHT22;53791;50.696;4.396;2023-07-29T15:29:40;22.20;99.90
23100;DHT22;53791;50.696;4.396;2023-07-29T15:32:08;22.20;99.90
23100;DHT22;53791;50.696;4.396;2023-07-29T15:34:35;22.30;99.90
23100;DHT22;53791;50.696;4.396;2023-07-29T15:37:03;22.50;99.90
23100;DHT22;53791;50.696;4.396;2023-07-29T15:39:31;22.70;99.90
23100;DHT22;53791;50.696;4.396;2023-07-29T15:41:58;22.90;99.90
23100;DHT22;53791;50.696;4.396;2023-07-29T15:44:26;23.00;99.90
23100;DHT22;53791;50.696;4.396;2023-07-29T15:46:53;23.00;99.90
23100;DHT22;53791;50.696;4.396;2023-07-29T15:49:23;22.80;99.90
23100;DHT22;53791;50.696;4.396;2023-07-29T15:51:50;22.80;99.90